Terminal Aerodrome Forecast
Issued by NWS

Home | Current Version | Previous Version | Graphics & Text | Print | Product List | Glossary On
Versions: 1 2 3 4 5 6 7 8 9 10 11 12 13 14 15 16 17 18 19 20
000
FTUS43 KICT 201740
TAFSLN
TAF
KSLN 201740Z 2018/2118 21010KT P6SM SKC
     FM210200 17010KT P6SM BKN060 BKN200
     FM210600 18009KT P6SM SCT200
     FM210700 18009KT P6SM SCT200 WS020/20040KT
     FM211200 19007KT P6SM FEW200
     FM211700 19015G23KT P6SM FEW200=

USA.gov is the U.S. government's official web portal to all federal, state and local government web resources and services.